sensor_id;sensor_type;location;lat;lon;timestamp;temperature;humidity
16823;DHT22;8528;49.976;11.858;2024-01-16T00:00:31;-1.90;99.90
16823;DHT22;8528;49.976;11.858;2024-01-16T00:02:58;-1.90;99.90
16823;DHT22;8528;49.976;11.858;2024-01-16T00:05:25;-1.90;99.90
16823;DHT22;8528;49.976;11.858;2024-01-16T00:07:52;-1.90;99.90
16823;DHT22;8528;49.976;11.858;2024-01-16T00:10:18;-1.90;99.90
16823;DHT22;8528;49.976;11.858;2024-01-16T00:12:45;-1.90;99.90
16823;DHT22;8528;49.976;11.858;2024-01-16T00:15:12;-1.90;99.90
16823;DHT22;8528;49.976;11.858;2024-01-16T00:17:39;-1.90;99.90
16823;DHT22;8528;49.976;11.858;2024-01-16T00:20:06;-1.90;99.90
16823;DHT22;8528;49.976;11.858;2024-01-16T00:22:34;-1.90;99.90
16823;DHT22;8528;49.976;11.858;2024-01-16T00:25:01;-1.90;99.90
16823;DHT22;8528;49.976;11.858;2024-01-16T00:27:28;-1.90;99.90
16823;DHT22;8528;49.976;11.858;2024-01-16T00:29:55;-1.90;99.90
16823;DHT22;8528;49.976;11.858;2024-01-16T00:32:21;-1.90;99.90
16823;DHT22;8528;49.976;11.858;2024-01-16T00:34:49;-1.90;99.90
16823;DHT22;8528;49.976;11.858;2024-01-16T00:37:15;-1.80;99.90
16823;DHT22;8528;49.976;11.858;2024-01-16T00:39:42;-1.90;99.90
16823;DHT22;8528;49.976;11.858;2024-01-16T00:42:09;-1.90;99.90
16823;DHT22;8528;49.976;11.858;2024-01-16T00:44:36;-1.90;99.90
16823;DHT22;8528;49.976;11.858;2024-01-16T00:47:03;-1.90;99.90
16823;DHT22;8528;49.976;11.858;2024-01-16T00:49:32;-1.80;99.90
16823;DHT22;8528;49.976;11.858;2024-01-16T00:51:58;-1.80;99.90
16823;DHT22;8528;49.976;11.858;2024-01-16T00:54:25;-1.80;99.90
16823;DHT22;8528;49.976;11.858;2024-01-16T00:56:52;-1.80;99.90
16823;DHT22;8528;49.976;11.858;2024-01-16T00:59:22;-1.80;99.90
16823;DHT22;8528;49.976;11.858;2024-01-16T01:01:49;-1.90;99.90
16823;DHT22;8528;49.976;11.858;2024-01-16T01:04:15;-1.90;99.90
16823;DHT22;8528;49.976;11.858;2024-01-16T01:06:42;-1.90;99.90
16823;DHT22;8528;49.976;11.858;2024-01-16T01:09:09;-1.90;99.90
16823;DHT22;8528;49.976;11.858;2024-01-16T01:11:38;-1.90;99.90
16823;DHT22;8528;49.976;11.858;2024-01-16T01:14:06;-1.80;99.90
16823;DHT22;8528;49.976;11.858;2024-01-16T01:16:32;-1.80;99.90
16823;DHT22;8528;49.976;11.858;2024-01-16T01:18:59;-1.80;99.90
16823;DHT22;8528;49.976;11.858;2024-01-16T01:21:26;-1.80;99.90
16823;DHT22;8528;49.976;11.858;2024-01-16T01:23:53;-1.80;99.90
16823;DHT22;8528;49.976;11.858;2024-01-16T01:26:20;-1.90;99.90
16823;DHT22;8528;49.976;11.858;2024-01-16T01:28:48;-1.90;99.90
16823;DHT22;8528;49.976;11.858;2024-01-16T01:31:14;-1.90;99.90
16823;DHT22;8528;49.976;11.858;2024-01-16T01:33:42;-1.90;99.90
16823;DHT22;8528;49.976;11.858;2024-01-16T01:36:09;-1.90;99.90
16823;DHT22;8528;49.976;11.858;2024-01-16T01:38:36;-1.90;99.90
16823;DHT22;8528;49.976;11.858;2024-01-16T01:41:03;-1.90;99.90
16823;DHT22;8528;49.976;11.858;2024-01-16T01:43:33;-1.90;99.90
16823;DHT22;8528;49.976;11.858;2024-01-16T01:46:11;-1.90;99.90
16823;DHT22;8528;49.976;11.858;2024-01-16T01:48:40;-1.80;99.90
16823;DHT22;8528;49.976;11.858;2024-01-16T01:51:09;-1.80;99.90
16823;DHT22;8528;49.976;11.858;2024-01-16T01:53:37;-1.80;99.90
16823;DHT22;8528;49.976;11.858;2024-01-16T01:56:07;-1.80;99.90
16823;DHT22;8528;49.976;11.858;2024-01-16T01:58:36;-1.90;99.90
16823;DHT22;8528;49.976;11.858;2024-01-16T02:01:06;-1.90;99.90
16823;DHT22;8528;49.976;11.858;2024-01-16T02:03:42;-1.90;99.90
16823;DHT22;8528;49.976;11.858;2024-01-16T02:06:10;-1.90;99.90
16823;DHT22;8528;49.976;11.858;2024-01-16T02:08:39;-1.90;99.90
16823;DHT22;8528;49.976;11.858;2024-01-16T02:11:07;-1.90;99.90
16823;DHT22;8528;49.976;11.858;2024-01-16T02:13:34;-1.90;99.90
16823;DHT22;8528;49.976;11.858;2024-01-16T02:16:01;-1.90;99.90
16823;DHT22;8528;49.976;11.858;2024-01-16T02:18:28;-1.80;99.90
16823;DHT22;8528;49.976;11.858;2024-01-16T02:20:59;-1.90;99.90
16823;DHT22;8528;49.976;11.858;2024-01-16T02:23:27;-1.90;99.90
16823;DHT22;8528;49.976;11.858;2024-01-16T02:25:55;-1.90;99.90
16823;DHT22;8528;49.976;11.858;2024-01-16T02:28:21;-1.90;99.90
16823;DHT22;8528;49.976;11.858;2024-01-16T02:30:49;-1.90;99.90
16823;DHT22;8528;49.976;11.858;2024-01-16T02:33:16;-1.90;99.90
16823;DHT22;8528;49.976;11.858;2024-01-16T02:35:43;-1.90;99.90
16823;DHT22;8528;49.976;11.858;2024-01-16T02:38:09;-1.90;99.90
16823;DHT22;8528;49.976;11.858;2024-01-16T02:40:36;-1.90;99.90
16823;DHT22;8528;49.976;11.858;2024-01-16T02:43:03;-1.90;99.90
16823;DHT22;8528;49.976;11.858;2024-01-16T02:45:30;-1.90;99.90
16823;DHT22;8528;49.976;11.858;2024-01-16T02:47:57;-2.00;99.90
16823;DHT22;8528;49.976;11.858;2024-01-16T02:50:23;-2.00;99.90
16823;DHT22;8528;49.976;11.858;2024-01-16T02:52:51;-2.00;99.90
16823;DHT22;8528;49.976;11.858;2024-01-16T02:55:17;-1.90;99.90
16823;DHT22;8528;49.976;11.858;2024-01-16T02:57:44;-1.90;99.90
16823;DHT22;8528;49.976;11.858;2024-01-16T03:00:12;-2.00;99.90
16823;DHT22;8528;49.976;11.858;2024-01-16T03:02:40;-2.00;99.90
16823;DHT22;8528;49.976;11.858;2024-01-16T03:05:08;-2.00;99.90
16823;DHT22;8528;49.976;11.858;2024-01-16T03:07:35;-2.00;99.90
16823;DHT22;8528;49.976;11.858;2024-01-16T03:10:02;-2.00;99.90
16823;DHT22;8528;49.976;11.858;2024-01-16T03:12:29;-2.00;99.90
16823;DHT22;8528;49.976;11.858;2024-01-16T03:14:56;-2.00;99.90
16823;DHT22;8528;49.976;11.858;2024-01-16T03:17:23;-2.00;99.90
16823;DHT22;8528;49.976;11.858;2024-01-16T03:19:51;-2.00;99.90
16823;DHT22;8528;49.976;11.858;2024-01-16T03:22:18;-1.90;99.90
16823;DHT22;8528;49.976;11.858;2024-01-16T03:24:45;-1.90;99.90
16823;DHT22;8528;49.976;11.858;2024-01-16T03:27:12;-2.00;99.90
16823;DHT22;8528;49.976;11.858;2024-01-16T03:29:40;-2.00;99.90
16823;DHT22;8528;49.976;11.858;2024-01-16T03:32:07;-2.00;99.90
16823;DHT22;8528;49.976;11.858;2024-01-16T03:34:34;-2.00;99.90
16823;DHT22;8528;49.976;11.858;2024-01-16T03:37:01;-2.00;99.90
16823;DHT22;8528;49.976;11.858;2024-01-16T03:39:27;-2.00;99.90
16823;DHT22;8528;49.976;11.858;2024-01-16T03:41:54;-2.00;99.90
16823;DHT22;8528;49.976;11.858;2024-01-16T03:44:21;-2.00;99.90
16823;DHT22;8528;49.976;11.858;2024-01-16T03:46:48;-2.00;99.90
16823;DHT22;8528;49.976;11.858;2024-01-16T03:49:15;-2.00;99.90
16823;DHT22;8528;49.976;11.858;2024-01-16T03:51:42;-2.00;99.90
16823;DHT22;8528;49.976;11.858;2024-01-16T03:54:13;-2.00;99.90
16823;DHT22;8528;49.976;11.858;2024-01-16T03:56:40;-2.00;99.90
16823;DHT22;8528;49.976;11.858;2024-01-16T03:59:07;-2.10;99.90
16823;DHT22;8528;49.976;11.858;2024-01-16T04:01:34;-2.10;99.90
16823;DHT22;8528;49.976;11.858;2024-01-16T04:04:04;-2.00;99.90
16823;DHT22;8528;49.976;11.858;2024-01-16T04:06:33;-2.10;99.90
16823;DHT22;8528;49.976;11.858;2024-01-16T04:09:00;-2.10;99.90
16823;DHT22;8528;49.976;11.858;2024-01-16T04:11:28;-2.10;99.90
16823;DHT22;8528;49.976;11.858;2024-01-16T04:13:56;-2.10;99.90
16823;DHT22;8528;49.976;11.858;2024-01-16T04:16:23;-2.20;99.90
16823;DHT22;8528;49.976;11.858;2024-01-16T04:18:50;-2.20;99.90
16823;DHT22;8528;49.976;11.858;2024-01-16T04:21:17;-2.20;99.90
16823;DHT22;8528;49.976;11.858;2024-01-16T04:23:46;-2.30;99.90
16823;DHT22;8528;49.976;11.858;2024-01-16T04:26:13;-2.40;99.90
16823;DHT22;8528;49.976;11.858;2024-01-16T04:28:40;-2.40;99.90
16823;DHT22;8528;49.976;11.858;2024-01-16T04:31:07;-2.50;99.90
16823;DHT22;8528;49.976;11.858;2024-01-16T04:33:34;-2.40;99.90
16823;DHT22;8528;49.976;11.858;2024-01-16T04:36:02;-2.40;99.90
16823;DHT22;8528;49.976;11.858;2024-01-16T04:38:29;-2.40;99.90
16823;DHT22;8528;49.976;11.858;2024-01-16T04:40:56;-2.30;99.90
16823;DHT22;8528;49.976;11.858;2024-01-16T04:43:22;-2.30;99.90
16823;DHT22;8528;49.976;11.858;2024-01-16T04:45:49;-2.30;99.90
16823;DHT22;8528;49.976;11.858;2024-01-16T04:48:16;-2.30;99.90
16823;DHT22;8528;49.976;11.858;2024-01-16T04:50:44;-2.30;99.90
16823;DHT22;8528;49.976;11.858;2024-01-16T04:53:12;-2.30;99.90
16823;DHT22;8528;49.976;11.858;2024-01-16T04:55:39;-2.20;99.90
16823;DHT22;8528;49.976;11.858;2024-01-16T04:58:06;-2.20;99.90
16823;DHT22;8528;49.976;11.858;2024-01-16T05:00:34;-2.20;99.90
16823;DHT22;8528;49.976;11.858;2024-01-16T05:03:04;-2.20;99.90
16823;DHT22;8528;49.976;11.858;2024-01-16T05:05:32;-2.20;99.90
16823;DHT22;8528;49.976;11.858;2024-01-16T05:08:01;-2.20;99.90
16823;DHT22;8528;49.976;11.858;2024-01-16T05:10:29;-2.20;99.90
16823;DHT22;8528;49.976;11.858;2024-01-16T05:12:57;-2.30;99.90
16823;DHT22;8528;49.976;11.858;2024-01-16T05:15:24;-2.30;99.90
16823;DHT22;8528;49.976;11.858;2024-01-16T05:17:51;-2.30;99.90
16823;DHT22;8528;49.976;11.858;2024-01-16T05:20:18;-2.20;99.90
16823;DHT22;8528;49.976;11.858;2024-01-16T05:22:45;-2.20;99.90
16823;DHT22;8528;49.976;11.858;2024-01-16T05:25:12;-2.20;99.90
16823;DHT22;8528;49.976;11.858;2024-01-16T05:27:39;-2.20;99.90
16823;DHT22;8528;49.976;11.858;2024-01-16T05:30:06;-2.20;99.90
16823;DHT22;8528;49.976;11.858;2024-01-16T05:32:35;-2.20;99.90
16823;DHT22;8528;49.976;11.858;2024-01-16T05:35:02;-2.10;99.90
16823;DHT22;8528;49.976;11.858;2024-01-16T05:37:28;-2.10;99.90
16823;DHT22;8528;49.976;11.858;2024-01-16T05:39:56;-2.20;99.90
16823;DHT22;8528;49.976;11.858;2024-01-16T05:42:24;-2.20;99.90
16823;DHT22;8528;49.976;11.858;2024-01-16T05:44:51;-2.20;99.90
16823;DHT22;8528;49.976;11.858;2024-01-16T05:47:20;-2.20;99.90
16823;DHT22;8528;49.976;11.858;2024-01-16T05:49:46;-2.20;99.90
16823;DHT22;8528;49.976;11.858;2024-01-16T05:52:14;-2.20;99.90
16823;DHT22;8528;49.976;11.858;2024-01-16T05:54:40;-2.20;99.90
16823;DHT22;8528;49.976;11.858;2024-01-16T05:57:07;-2.20;99.90
16823;DHT22;8528;49.976;11.858;2024-01-16T05:59:34;-2.20;99.90
16823;DHT22;8528;49.976;11.858;2024-01-16T06:02:01;-2.20;99.90
16823;DHT22;8528;49.976;11.858;2024-01-16T06:04:28;-2.10;99.90
16823;DHT22;8528;49.976;11.858;2024-01-16T06:06:55;-2.10;99.90
16823;DHT22;8528;49.976;11.858;2024-01-16T06:09:22;-2.10;99.90
16823;DHT22;8528;49.976;11.858;2024-01-16T06:11:49;-2.10;99.90
16823;DHT22;8528;49.976;11.858;2024-01-16T06:14:16;-2.10;99.90
16823;DHT22;8528;49.976;11.858;2024-01-16T06:16:48;-2.10;99.90
16823;DHT22;8528;49.976;11.858;2024-01-16T06:19:15;-2.00;99.90
16823;DHT22;8528;49.976;11.858;2024-01-16T06:21:43;-2.10;99.90
16823;DHT22;8528;49.976;11.858;2024-01-16T06:24:10;-2.10;99.90
16823;DHT22;8528;49.976;11.858;2024-01-16T06:26:38;-2.10;99.90
16823;DHT22;8528;49.976;11.858;2024-01-16T06:29:05;-2.10;99.90
16823;DHT22;8528;49.976;11.858;2024-01-16T06:31:33;-2.20;99.90
16823;DHT22;8528;49.976;11.858;2024-01-16T06:34:00;-2.20;99.90
16823;DHT22;8528;49.976;11.858;2024-01-16T06:36:27;-2.20;99.90
16823;DHT22;8528;49.976;11.858;2024-01-16T06:38:54;-2.10;99.90
16823;DHT22;8528;49.976;11.858;2024-01-16T06:41:21;-2.10;99.90
16823;DHT22;8528;49.976;11.858;2024-01-16T06:43:48;-2.00;99.90
16823;DHT22;8528;49.976;11.858;2024-01-16T06:46:15;-2.10;99.90
16823;DHT22;8528;49.976;11.858;2024-01-16T06:48:42;-2.20;99.90
16823;DHT22;8528;49.976;11.858;2024-01-16T06:51:09;-2.10;99.90
16823;DHT22;8528;49.976;11.858;2024-01-16T06:53:37;-2.20;99.90
16823;DHT22;8528;49.976;11.858;2024-01-16T06:56:06;-2.20;99.90
16823;DHT22;8528;49.976;11.858;2024-01-16T06:58:33;-2.10;99.90
16823;DHT22;8528;49.976;11.858;2024-01-16T07:01:01;-2.10;99.90
16823;DHT22;8528;49.976;11.858;2024-01-16T07:03:28;-2.00;99.90
16823;DHT22;8528;49.976;11.858;2024-01-16T07:05:55;-2.00;99.90
16823;DHT22;8528;49.976;11.858;2024-01-16T07:08:22;-2.00;99.90
16823;DHT22;8528;49.976;11.858;2024-01-16T07:10:49;-2.10;99.90
16823;DHT22;8528;49.976;11.858;2024-01-16T07:13:15;-2.00;99.90
16823;DHT22;8528;49.976;11.858;2024-01-16T07:15:42;-2.00;99.90
16823;DHT22;8528;49.976;11.858;2024-01-16T07:18:09;-2.10;99.90
16823;DHT22;8528;49.976;11.858;2024-01-16T07:20:36;-2.00;99.90
16823;DHT22;8528;49.976;11.858;2024-01-16T07:23:04;-2.10;99.90
16823;DHT22;8528;49.976;11.858;2024-01-16T07:25:31;-2.00;99.90
16823;DHT22;8528;49.976;11.858;2024-01-16T07:27:57;-2.00;99.90
16823;DHT22;8528;49.976;11.858;2024-01-16T07:30:24;-2.00;99.90
16823;DHT22;8528;49.976;11.858;2024-01-16T07:32:51;-2.00;99.90
16823;DHT22;8528;49.976;11.858;2024-01-16T07:35:18;-2.00;99.90
16823;DHT22;8528;49.976;11.858;2024-01-16T07:37:45;-2.00;99.90
16823;DHT22;8528;49.976;11.858;2024-01-16T07:40:11;-1.90;99.90
16823;DHT22;8528;49.976;11.858;2024-01-16T07:42:39;-1.90;99.90
16823;DHT22;8528;49.976;11.858;2024-01-16T07:45:06;-1.90;99.90
16823;DHT22;8528;49.976;11.858;2024-01-16T07:47:33;-1.90;99.90
16823;DHT22;8528;49.976;11.858;2024-01-16T07:50:00;-1.80;99.90
16823;DHT22;8528;49.976;11.858;2024-01-16T07:52:33;-1.80;99.90
16823;DHT22;8528;49.976;11.858;2024-01-16T07:54:59;-1.70;99.90
16823;DHT22;8528;49.976;11.858;2024-01-16T07:57:26;-1.60;99.90
16823;DHT22;8528;49.976;11.858;2024-01-16T07:59:53;-1.60;99.90
16823;DHT22;8528;49.976;11.858;2024-01-16T08:02:20;-1.50;99.90
16823;DHT22;8528;49.976;11.858;2024-01-16T08:04:50;-1.60;99.90
16823;DHT22;8528;49.976;11.858;2024-01-16T08:07:17;-1.60;99.90
16823;DHT22;8528;49.976;11.858;2024-01-16T08:09:44;-1.60;99.90
16823;DHT22;8528;49.976;11.858;2024-01-16T08:12:11;-1.70;99.90
16823;DHT22;8528;49.976;11.858;2024-01-16T08:14:37;-1.80;99.90
16823;DHT22;8528;49.976;11.858;2024-01-16T08:17:04;-1.80;99.90
16823;DHT22;8528;49.976;11.858;2024-01-16T08:19:31;-1.80;99.90
16823;DHT22;8528;49.976;11.858;2024-01-16T08:21:59;-1.80;99.90
16823;DHT22;8528;49.976;11.858;2024-01-16T08:24:26;-1.80;99.90
16823;DHT22;8528;49.976;11.858;2024-01-16T08:26:52;-1.80;99.90
16823;DHT22;8528;49.976;11.858;2024-01-16T08:29:20;-1.80;99.90
16823;DHT22;8528;49.976;11.858;2024-01-16T08:31:46;-1.70;99.90
16823;DHT22;8528;49.976;11.858;2024-01-16T08:34:13;-1.70;99.90
16823;DHT22;8528;49.976;11.858;2024-01-16T08:36:40;-1.70;99.90
16823;DHT22;8528;49.976;11.858;2024-01-16T08:39:07;-1.70;99.90
16823;DHT22;8528;49.976;11.858;2024-01-16T08:41:34;-1.80;99.90
16823;DHT22;8528;49.976;11.858;2024-01-16T08:44:01;-1.80;99.90
16823;DHT22;8528;49.976;11.858;2024-01-16T08:46:28;-1.80;99.90
16823;DHT22;8528;49.976;11.858;2024-01-16T08:48:54;-1.80;99.90
16823;DHT22;8528;49.976;11.858;2024-01-16T08:51:22;-1.80;99.90
16823;DHT22;8528;49.976;11.858;2024-01-16T08:53:49;-1.70;99.90
16823;DHT22;8528;49.976;11.858;2024-01-16T08:56:15;-1.80;99.90
16823;DHT22;8528;49.976;11.858;2024-01-16T08:58:44;-1.80;99.90
16823;DHT22;8528;49.976;11.858;2024-01-16T09:01:11;-1.80;99.90
16823;DHT22;8528;49.976;11.858;2024-01-16T09:03:38;-1.70;99.90
16823;DHT22;8528;49.976;11.858;2024-01-16T09:06:04;-1.60;99.90
16823;DHT22;8528;49.976;11.858;2024-01-16T09:08:31;-1.60;99.90
16823;DHT22;8528;49.976;11.858;2024-01-16T09:10:58;-1.60;99.90
16823;DHT22;8528;49.976;11.858;2024-01-16T09:13:25;-1.50;99.90
16823;DHT22;8528;49.976;11.858;2024-01-16T09:15:52;-1.50;99.90
16823;DHT22;8528;49.976;11.858;2024-01-16T09:18:19;-1.40;99.90
16823;DHT22;8528;49.976;11.858;2024-01-16T09:20:46;-1.30;99.90
16823;DHT22;8528;49.976;11.858;2024-01-16T09:23:14;-1.20;99.90
16823;DHT22;8528;49.976;11.858;2024-01-16T09:25:40;-1.10;99.90
16823;DHT22;8528;49.976;11.858;2024-01-16T09:28:10;-0.90;99.90
16823;DHT22;8528;49.976;11.858;2024-01-16T09:30:37;-0.80;99.90
16823;DHT22;8528;49.976;11.858;2024-01-16T09:33:04;-0.80;99.90
16823;DHT22;8528;49.976;11.858;2024-01-16T09:35:34;-0.80;99.90
16823;DHT22;8528;49.976;11.858;2024-01-16T09:38:01;-0.50;99.90
16823;DHT22;8528;49.976;11.858;2024-01-16T09:40:28;-0.20;99.90
16823;DHT22;8528;49.976;11.858;2024-01-16T09:42:55;0.30;99.90
16823;DHT22;8528;49.976;11.858;2024-01-16T09:45:22;0.80;99.90
16823;DHT22;8528;49.976;11.858;2024-01-16T09:47:51;1.20;99.90
16823;DHT22;8528;49.976;11.858;2024-01-16T09:50:19;1.10;99.90
16823;DHT22;8528;49.976;11.858;2024-01-16T09:52:47;0.60;99.90
16823;DHT22;8528;49.976;11.858;2024-01-16T09:55:15;0.30;99.90
16823;DHT22;8528;49.976;11.858;2024-01-16T09:57:45;0.00;99.90
16823;DHT22;8528;49.976;11.858;2024-01-16T10:00:13;-0.20;99.90
16823;DHT22;8528;49.976;11.858;2024-01-16T10:02:40;-0.40;99.90
16823;DHT22;8528;49.976;11.858;2024-01-16T10:05:09;-0.50;99.90
16823;DHT22;8528;49.976;11.858;2024-01-16T10:07:41;-0.50;99.90
16823;DHT22;8528;49.976;11.858;2024-01-16T10:10:11;-0.40;99.90
16823;DHT22;8528;49.976;11.858;2024-01-16T10:12:39;-0.30;99.90
16823;DHT22;8528;49.976;11.858;2024-01-16T10:15:07;-0.10;99.90
16823;DHT22;8528;49.976;11.858;2024-01-16T10:17:37;0.00;99.90
16823;DHT22;8528;49.976;11.858;2024-01-16T10:20:05;0.20;99.90
16823;DHT22;8528;49.976;11.858;2024-01-16T10:22:33;0.30;99.90
16823;DHT22;8528;49.976;11.858;2024-01-16T10:25:12;0.40;99.90
16823;DHT22;8528;49.976;11.858;2024-01-16T10:27:44;0.40;99.90
16823;DHT22;8528;49.976;11.858;2024-01-16T10:30:10;0.50;99.90
16823;DHT22;8528;49.976;11.858;2024-01-16T10:32:39;0.90;99.90
16823;DHT22;8528;49.976;11.858;2024-01-16T10:35:11;1.40;99.90
16823;DHT22;8528;49.976;11.858;2024-01-16T10:37:43;1.70;99.90
16823;DHT22;8528;49.976;11.858;2024-01-16T10:40:11;1.90;99.90
16823;DHT22;8528;49.976;11.858;2024-01-16T10:42:40;1.70;99.90
16823;DHT22;8528;49.976;11.858;2024-01-16T10:45:07;1.40;99.90
16823;DHT22;8528;49.976;11.858;2024-01-16T10:47:34;1.50;99.90
16823;DHT22;8528;49.976;11.858;2024-01-16T10:50:05;1.80;99.90
16823;DHT22;8528;49.976;11.858;2024-01-16T10:52:44;1.70;99.90
16823;DHT22;8528;49.976;11.858;2024-01-16T10:55:23;1.60;99.90
16823;DHT22;8528;49.976;11.858;2024-01-16T10:57:51;1.50;99.90
16823;DHT22;8528;49.976;11.858;2024-01-16T11:00:21;1.80;99.90
16823;DHT22;8528;49.976;11.858;2024-01-16T11:03:06;1.70;99.90
16823;DHT22;8528;49.976;11.858;2024-01-16T11:05:34;1.50;99.90
16823;DHT22;8528;49.976;11.858;2024-01-16T11:08:02;1.20;99.90
16823;DHT22;8528;49.976;11.858;2024-01-16T11:10:32;1.20;99.90
16823;DHT22;8528;49.976;11.858;2024-01-16T11:13:01;1.40;99.90
16823;DHT22;8528;49.976;11.858;2024-01-16T11:15:28;1.40;99.90
16823;DHT22;8528;49.976;11.858;2024-01-16T11:17:56;1.30;99.90
16823;DHT22;8528;49.976;11.858;2024-01-16T11:20:24;1.10;99.90
16823;DHT22;8528;49.976;11.858;2024-01-16T11:23:12;1.00;99.90
16823;DHT22;8528;49.976;11.858;2024-01-16T11:25:39;0.90;99.90
16823;DHT22;8528;49.976;11.858;2024-01-16T11:28:11;0.70;99.90
16823;DHT22;8528;49.976;11.858;2024-01-16T11:30:38;0.60;99.90
16823;DHT22;8528;49.976;11.858;2024-01-16T11:33:06;0.50;99.90
16823;DHT22;8528;49.976;11.858;2024-01-16T11:35:37;0.20;99.90
16823;DHT22;8528;49.976;11.858;2024-01-16T11:38:16;0.10;99.90
16823;DHT22;8528;49.976;11.858;2024-01-16T11:40:43;0.00;99.90
16823;DHT22;8528;49.976;11.858;2024-01-16T11:43:35;0.00;99.90
16823;DHT22;8528;49.976;11.858;2024-01-16T11:46:06;0.10;99.90
16823;DHT22;8528;49.976;11.858;2024-01-16T11:48:36;0.20;99.90
16823;DHT22;8528;49.976;11.858;2024-01-16T12:01:23;0.30;99.90
16823;DHT22;8528;49.976;11.858;2024-01-16T12:04:07;0.20;99.90
16823;DHT22;8528;49.976;11.858;2024-01-16T12:06:36;0.00;99.90
16823;DHT22;8528;49.976;11.858;2024-01-16T12:09:14;0.00;99.90
16823;DHT22;8528;49.976;11.858;2024-01-16T12:11:41;0.30;99.90
16823;DHT22;8528;49.976;11.858;2024-01-16T12:14:12;0.60;99.90
16823;DHT22;8528;49.976;11.858;2024-01-16T12:16:39;1.00;99.90
16823;DHT22;8528;49.976;11.858;2024-01-16T12:19:27;1.30;99.90
16823;DHT22;8528;49.976;11.858;2024-01-16T12:21:55;1.40;99.90
16823;DHT22;8528;49.976;11.858;2024-01-16T12:24:23;1.40;99.90
16823;DHT22;8528;49.976;11.858;2024-01-16T12:26:50;1.40;99.90
16823;DHT22;8528;49.976;11.858;2024-01-16T12:29:17;1.50;99.90
16823;DHT22;8528;49.976;11.858;2024-01-16T12:31:44;1.50;99.90
16823;DHT22;8528;49.976;11.858;2024-01-16T12:34:11;1.10;99.90
16823;DHT22;8528;49.976;11.858;2024-01-16T12:36:39;0.80;99.90
16823;DHT22;8528;49.976;11.858;2024-01-16T12:39:08;0.60;99.90
16823;DHT22;8528;49.976;11.858;2024-01-16T12:41:44;0.50;99.90
16823;DHT22;8528;49.976;11.858;2024-01-16T12:44:13;0.20;99.90
16823;DHT22;8528;49.976;11.858;2024-01-16T12:47:03;0.20;99.90
16823;DHT22;8528;49.976;11.858;2024-01-16T12:49:32;0.10;99.90
16823;DHT22;8528;49.976;11.858;2024-01-16T12:52:18;0.00;99.90
16823;DHT22;8528;49.976;11.858;2024-01-16T12:54:46;-0.10;99.90
16823;DHT22;8528;49.976;11.858;2024-01-16T12:57:18;-0.20;99.90
16823;DHT22;8528;49.976;11.858;2024-01-16T12:59:47;-0.30;99.90
16823;DHT22;8528;49.976;11.858;2024-01-16T13:02:23;-0.40;99.90
16823;DHT22;8528;49.976;11.858;2024-01-16T13:04:57;-0.40;99.90
16823;DHT22;8528;49.976;11.858;2024-01-16T13:07:26;-0.40;99.90
16823;DHT22;8528;49.976;11.858;2024-01-16T13:10:12;-0.40;99.90
16823;DHT22;8528;49.976;11.858;2024-01-16T13:12:43;-0.50;99.90
16823;DHT22;8528;49.976;11.858;2024-01-16T13:15:09;-0.60;99.90
16823;DHT22;8528;49.976;11.858;2024-01-16T13:17:38;-0.60;99.90
16823;DHT22;8528;49.976;11.858;2024-01-16T13:20:05;-0.70;99.90
16823;DHT22;8528;49.976;11.858;2024-01-16T13:22:36;-0.70;99.90
16823;DHT22;8528;49.976;11.858;2024-01-16T13:25:12;-0.60;99.90
16823;DHT22;8528;49.976;11.858;2024-01-16T13:27:39;-0.50;99.90
16823;DHT22;8528;49.976;11.858;2024-01-16T13:30:07;-0.50;99.90
16823;DHT22;8528;49.976;11.858;2024-01-16T13:32:34;-0.50;99.90
16823;DHT22;8528;49.976;11.858;2024-01-16T13:35:04;-0.50;99.90
16823;DHT22;8528;49.976;11.858;2024-01-16T13:37:35;-0.50;99.90
16823;DHT22;8528;49.976;11.858;2024-01-16T13:40:05;-0.60;99.90
16823;DHT22;8528;49.976;11.858;2024-01-16T13:42:42;-0.60;99.90
16823;DHT22;8528;49.976;11.858;2024-01-16T13:45:09;-0.70;99.90
16823;DHT22;8528;49.976;11.858;2024-01-16T13:47:37;-0.70;99.90
16823;DHT22;8528;49.976;11.858;2024-01-16T13:50:07;-0.70;99.90
16823;DHT22;8528;49.976;11.858;2024-01-16T13:52:35;-0.70;99.90
16823;DHT22;8528;49.976;11.858;2024-01-16T13:55:02;-0.70;99.90
16823;DHT22;8528;49.976;11.858;2024-01-16T13:57:32;-0.70;99.90
16823;DHT22;8528;49.976;11.858;2024-01-16T13:59:59;-0.60;99.90
16823;DHT22;8528;49.976;11.858;2024-01-16T14:02:26;-0.60;99.90
16823;DHT22;8528;49.976;11.858;2024-01-16T14:04:53;-0.60;99.90
16823;DHT22;8528;49.976;11.858;2024-01-16T14:07:20;-0.60;99.90
16823;DHT22;8528;49.976;11.858;2024-01-16T14:09:48;-0.50;99.90
16823;DHT22;8528;49.976;11.858;2024-01-16T14:12:15;-0.40;99.90
16823;DHT22;8528;49.976;11.858;2024-01-16T14:14:42;-0.30;99.90
16823;DHT22;8528;49.976;11.858;2024-01-16T14:17:10;-0.30;99.90
16823;DHT22;8528;49.976;11.858;2024-01-16T14:19:37;-0.20;99.90
16823;DHT22;8528;49.976;11.858;2024-01-16T14:22:05;-0.20;99.90
16823;DHT22;8528;49.976;11.858;2024-01-16T14:24:32;-0.20;99.90
16823;DHT22;8528;49.976;11.858;2024-01-16T14:26:59;-0.30;99.90
16823;DHT22;8528;49.976;11.858;2024-01-16T14:29:26;-0.20;99.90
16823;DHT22;8528;49.976;11.858;2024-01-16T14:31:56;-0.20;99.90
16823;DHT22;8528;49.976;11.858;2024-01-16T14:34:25;-0.10;99.90
16823;DHT22;8528;49.976;11.858;2024-01-16T14:36:52;0.00;99.90
16823;DHT22;8528;49.976;11.858;2024-01-16T14:39:20;0.00;99.90
16823;DHT22;8528;49.976;11.858;2024-01-16T14:41:51;0.00;99.90
16823;DHT22;8528;49.976;11.858;2024-01-16T14:44:21;-0.10;99.90
16823;DHT22;8528;49.976;11.858;2024-01-16T14:46:48;-0.10;99.90
16823;DHT22;8528;49.976;11.858;2024-01-16T14:49:19;-0.10;99.90
16823;DHT22;8528;49.976;11.858;2024-01-16T14:51:46;-0.20;99.90
16823;DHT22;8528;49.976;11.858;2024-01-16T14:54:13;-0.40;99.90
16823;DHT22;8528;49.976;11.858;2024-01-16T14:56:40;-0.70;99.90
16823;DHT22;8528;49.976;11.858;2024-01-16T14:59:07;-0.90;99.90
16823;DHT22;8528;49.976;11.858;2024-01-16T15:01:41;-1.00;99.90
16823;DHT22;8528;49.976;11.858;2024-01-16T15:04:07;-1.30;99.90
16823;DHT22;8528;49.976;11.858;2024-01-16T15:06:34;-1.40;99.90
16823;DHT22;8528;49.976;11.858;2024-01-16T15:09:02;-1.50;99.90
16823;DHT22;8528;49.976;11.858;2024-01-16T15:11:28;-1.60;99.90
16823;DHT22;8528;49.976;11.858;2024-01-16T15:13:55;-1.50;99.90
16823;DHT22;8528;49.976;11.858;2024-01-16T15:16:24;-1.50;99.90
16823;DHT22;8528;49.976;11.858;2024-01-16T15:18:51;-1.60;99.90
16823;DHT22;8528;49.976;11.858;2024-01-16T15:21:19;-1.50;99.90
16823;DHT22;8528;49.976;11.858;2024-01-16T15:23:46;-1.40;99.90
16823;DHT22;8528;49.976;11.858;2024-01-16T15:26:13;-1.40;99.90
16823;DHT22;8528;49.976;11.858;2024-01-16T15:28:46;-1.40;99.90
16823;DHT22;8528;49.976;11.858;2024-01-16T15:31:15;-1.50;99.90
16823;DHT22;8528;49.976;11.858;2024-01-16T15:33:43;-1.60;99.90
16823;DHT22;8528;49.976;11.858;2024-01-16T15:36:10;-1.60;99.90
16823;DHT22;8528;49.976;11.858;2024-01-16T15:38:37;-1.70;99.90
16823;DHT22;8528;49.976;11.858;2024-01-16T15:41:04;-1.70;99.90
16823;DHT22;8528;49.976;11.858;2024-01-16T15:43:31;-1.70;99.90
16823;DHT22;8528;49.976;11.858;2024-01-16T15:45:57;-1.70;99.90
16823;DHT22;8528;49.976;11.858;2024-01-16T15:48:24;-1.70;99.90